sensor_id;sensor_type;location;lat;lon;timestamp;P1;durP1;ratioP1;P2;durP2;ratioP2
51724;SDS011;37801;53.224;6.552;2023-03-14T00:01:47;25.52;;;5.30;;
51724;SDS011;37801;53.224;6.552;2023-03-14T00:04:14;32.45;;;6.28;;
51724;SDS011;37801;53.224;6.552;2023-03-14T00:06:40;27.30;;;5.25;;
51724;SDS011;37801;53.224;6.552;2023-03-14T00:09:06;35.05;;;5.57;;
51724;SDS011;37801;53.224;6.552;2023-03-14T00:11:32;29.90;;;5.35;;
51724;SDS011;37801;53.224;6.552;2023-03-14T00:13:58;34.00;;;6.03;;
51724;SDS011;37801;53.224;6.552;2023-03-14T00:16:24;24.70;;;5.22;;
51724;SDS011;37801;53.224;6.552;2023-03-14T00:18:51;29.30;;;5.10;;
51724;SDS011;37801;53.224;6.552;2023-03-14T00:21:18;26.48;;;5.22;;
51724;SDS011;37801;53.224;6.552;2023-03-14T00:23:44;33.75;;;5.63;;
51724;SDS011;37801;53.224;6.552;2023-03-14T00:26:11;26.15;;;5.40;;
51724;SDS011;37801;53.224;6.552;2023-03-14T00:28:39;23.92;;;5.22;;
51724;SDS011;37801;53.224;6.552;2023-03-14T00:31:06;26.08;;;6.30;;
51724;SDS011;37801;53.224;6.552;2023-03-14T00:33:34;20.20;;;4.70;;
51724;SDS011;37801;53.224;6.552;2023-03-14T00:36:01;27.60;;;5.05;;
51724;SDS011;37801;53.224;6.552;2023-03-14T00:38:33;24.67;;;4.95;;
51724;SDS011;37801;53.224;6.552;2023-03-14T00:41:02;27.88;;;5.72;;
51724;SDS011;37801;53.224;6.552;2023-03-14T00:43:32;25.50;;;5.32;;
51724;SDS011;37801;53.224;6.552;2023-03-14T00:45:58;26.92;;;5.38;;
51724;SDS011;37801;53.224;6.552;2023-03-14T00:48:24;25.95;;;4.82;;
51724;SDS011;37801;53.224;6.552;2023-03-14T00:50:49;23.08;;;4.40;;
51724;SDS011;37801;53.224;6.552;2023-03-14T00:53:15;23.48;;;4.63;;
51724;SDS011;37801;53.224;6.552;2023-03-14T00:55:42;25.10;;;4.68;;
51724;SDS011;37801;53.224;6.552;2023-03-14T00:58:09;22.27;;;4.72;;
51724;SDS011;37801;53.224;6.552;2023-03-14T01:00:36;20.67;;;4.68;;
51724;SDS011;37801;53.224;6.552;2023-03-14T01:03:02;22.33;;;4.80;;
51724;SDS011;37801;53.224;6.552;2023-03-14T01:05:29;26.65;;;4.65;;
51724;SDS011;37801;53.224;6.552;2023-03-14T01:07:54;27.45;;;4.93;;
51724;SDS011;37801;53.224;6.552;2023-03-14T01:10:20;30.58;;;5.45;;
51724;SDS011;37801;53.224;6.552;2023-03-14T01:12:46;23.40;;;5.32;;
51724;SDS011;37801;53.224;6.552;2023-03-14T01:15:12;20.48;;;4.30;;
51724;SDS011;37801;53.224;6.552;2023-03-14T01:17:38;26.45;;;4.32;;
51724;SDS011;37801;53.224;6.552;2023-03-14T01:20:04;22.38;;;5.10;;
51724;SDS011;37801;53.224;6.552;2023-03-14T01:22:34;30.35;;;4.68;;
51724;SDS011;37801;53.224;6.552;2023-03-14T01:25:05;31.27;;;5.35;;
51724;SDS011;37801;53.224;6.552;2023-03-14T01:27:35;22.13;;;4.03;;
51724;SDS011;37801;53.224;6.552;2023-03-14T01:30:01;20.35;;;4.03;;
51724;SDS011;37801;53.224;6.552;2023-03-14T01:32:27;18.77;;;4.18;;
51724;SDS011;37801;53.224;6.552;2023-03-14T01:34:53;24.42;;;4.57;;
51724;SDS011;37801;53.224;6.552;2023-03-14T01:37:19;21.13;;;4.28;;
51724;SDS011;37801;53.224;6.552;2023-03-14T01:39:46;15.65;;;4.20;;
51724;SDS011;37801;53.224;6.552;2023-03-14T01:42:12;20.70;;;3.92;;
51724;SDS011;37801;53.224;6.552;2023-03-14T01:47:17;18.70;;;4.18;;
51724;SDS011;37801;53.224;6.552;2023-03-14T01:49:43;14.63;;;3.38;;
51724;SDS011;37801;53.224;6.552;2023-03-14T01:52:13;19.88;;;3.80;;
51724;SDS011;37801;53.224;6.552;2023-03-14T01:54:54;21.75;;;4.78;;
51724;SDS011;37801;53.224;6.552;2023-03-14T01:57:29;15.50;;;3.22;;
51724;SDS011;37801;53.224;6.552;2023-03-14T01:59:59;17.23;;;3.83;;
51724;SDS011;37801;53.224;6.552;2023-03-14T02:02:41;15.52;;;3.17;;
51724;SDS011;37801;53.224;6.552;2023-03-14T02:05:14;17.92;;;3.88;;
51724;SDS011;37801;53.224;6.552;2023-03-14T02:10:15;17.23;;;3.78;;
51724;SDS011;37801;53.224;6.552;2023-03-14T02:12:45;15.57;;;3.53;;
51724;SDS011;37801;53.224;6.552;2023-03-14T02:15:12;16.45;;;3.00;;
51724;SDS011;37801;53.224;6.552;2023-03-14T02:17:38;18.58;;;3.17;;
51724;SDS011;37801;53.224;6.552;2023-03-14T02:20:14;18.20;;;3.10;;
51724;SDS011;37801;53.224;6.552;2023-03-14T02:22:45;16.85;;;3.47;;
51724;SDS011;37801;53.224;6.552;2023-03-14T02:25:14;16.25;;;3.33;;
51724;SDS011;37801;53.224;6.552;2023-03-14T02:27:48;16.58;;;2.65;;
51724;SDS011;37801;53.224;6.552;2023-03-14T02:30:16;17.08;;;2.97;;
51724;SDS011;37801;53.224;6.552;2023-03-14T02:32:48;17.40;;;3.38;;
51724;SDS011;37801;53.224;6.552;2023-03-14T02:35:21;11.65;;;2.75;;
51724;SDS011;37801;53.224;6.552;2023-03-14T02:37:53;14.90;;;2.95;;
51724;SDS011;37801;53.224;6.552;2023-03-14T02:40:24;12.98;;;2.78;;
51724;SDS011;37801;53.224;6.552;2023-03-14T02:42:50;13.90;;;2.47;;
51724;SDS011;37801;53.224;6.552;2023-03-14T02:47:55;14.52;;;3.20;;
51724;SDS011;37801;53.224;6.552;2023-03-14T02:50:26;10.38;;;2.63;;
51724;SDS011;37801;53.224;6.552;2023-03-14T02:52:56;16.98;;;3.30;;
51724;SDS011;37801;53.224;6.552;2023-03-14T02:55:22;11.32;;;3.15;;
51724;SDS011;37801;53.224;6.552;2023-03-14T02:57:48;14.98;;;3.13;;
51724;SDS011;37801;53.224;6.552;2023-03-14T03:00:15;15.60;;;3.60;;
51724;SDS011;37801;53.224;6.552;2023-03-14T03:02:41;15.60;;;3.17;;
51724;SDS011;37801;53.224;6.552;2023-03-14T03:05:07;14.90;;;3.30;;
51724;SDS011;37801;53.224;6.552;2023-03-14T03:07:33;12.60;;;3.15;;
51724;SDS011;37801;53.224;6.552;2023-03-14T03:09:58;15.30;;;3.25;;
51724;SDS011;37801;53.224;6.552;2023-03-14T03:12:24;12.10;;;3.50;;
51724;SDS011;37801;53.224;6.552;2023-03-14T03:14:50;11.20;;;3.20;;
51724;SDS011;37801;53.224;6.552;2023-03-14T03:17:16;14.73;;;3.85;;
51724;SDS011;37801;53.224;6.552;2023-03-14T03:19:42;13.00;;;3.63;;
51724;SDS011;37801;53.224;6.552;2023-03-14T03:22:08;12.75;;;3.75;;
51724;SDS011;37801;53.224;6.552;2023-03-14T03:24:34;15.25;;;4.05;;
51724;SDS011;37801;53.224;6.552;2023-03-14T03:26:59;11.50;;;3.35;;
51724;SDS011;37801;53.224;6.552;2023-03-14T03:29:25;11.18;;;3.20;;
51724;SDS011;37801;53.224;6.552;2023-03-14T03:31:51;12.02;;;3.40;;
51724;SDS011;37801;53.224;6.552;2023-03-14T03:34:17;12.00;;;3.83;;
51724;SDS011;37801;53.224;6.552;2023-03-14T03:36:42;13.30;;;3.90;;
51724;SDS011;37801;53.224;6.552;2023-03-14T03:39:08;10.45;;;3.60;;
51724;SDS011;37801;53.224;6.552;2023-03-14T03:41:34;12.60;;;3.63;;
51724;SDS011;37801;53.224;6.552;2023-03-14T03:43:59;10.73;;;3.55;;
51724;SDS011;37801;53.224;6.552;2023-03-14T03:46:25;16.58;;;4.00;;
51724;SDS011;37801;53.224;6.552;2023-03-14T03:48:55;20.35;;;4.68;;
51724;SDS011;37801;53.224;6.552;2023-03-14T03:51:22;13.23;;;4.38;;
51724;SDS011;37801;53.224;6.552;2023-03-14T03:53:47;12.27;;;3.55;;
51724;SDS011;37801;53.224;6.552;2023-03-14T03:56:13;18.40;;;4.28;;
51724;SDS011;37801;53.224;6.552;2023-03-14T03:58:39;15.35;;;4.30;;
51724;SDS011;37801;53.224;6.552;2023-03-14T04:01:05;15.77;;;4.60;;
51724;SDS011;37801;53.224;6.552;2023-03-14T04:03:32;14.13;;;4.68;;
51724;SDS011;37801;53.224;6.552;2023-03-14T04:06:02;19.52;;;4.53;;
51724;SDS011;37801;53.224;6.552;2023-03-14T04:08:33;16.58;;;4.22;;
51724;SDS011;37801;53.224;6.552;2023-03-14T04:10:59;17.27;;;4.32;;
51724;SDS011;37801;53.224;6.552;2023-03-14T04:13:26;18.92;;;4.93;;
51724;SDS011;37801;53.224;6.552;2023-03-14T04:15:53;21.48;;;5.60;;
51724;SDS011;37801;53.224;6.552;2023-03-14T04:18:19;15.38;;;4.35;;
51724;SDS011;37801;53.224;6.552;2023-03-14T04:20:50;26.40;;;5.68;;
51724;SDS011;37801;53.224;6.552;2023-03-14T04:23:17;25.20;;;4.80;;
51724;SDS011;37801;53.224;6.552;2023-03-14T04:25:42;17.02;;;4.68;;
51724;SDS011;37801;53.224;6.552;2023-03-14T04:28:08;22.73;;;5.20;;
51724;SDS011;37801;53.224;6.552;2023-03-14T04:30:34;17.95;;;5.28;;
51724;SDS011;37801;53.224;6.552;2023-03-14T04:33:00;20.02;;;5.45;;
51724;SDS011;37801;53.224;6.552;2023-03-14T04:35:25;18.98;;;5.32;;
51724;SDS011;37801;53.224;6.552;2023-03-14T04:37:51;19.75;;;5.75;;
51724;SDS011;37801;53.224;6.552;2023-03-14T04:40:17;18.25;;;5.68;;
51724;SDS011;37801;53.224;6.552;2023-03-14T04:42:43;24.65;;;6.93;;
51724;SDS011;37801;53.224;6.552;2023-03-14T04:45:09;19.08;;;6.00;;
51724;SDS011;37801;53.224;6.552;2023-03-14T04:47:35;19.85;;;6.90;;
51724;SDS011;37801;53.224;6.552;2023-03-14T04:50:01;19.02;;;6.65;;
51724;SDS011;37801;53.224;6.552;2023-03-14T04:52:27;18.27;;;7.22;;
51724;SDS011;37801;53.224;6.552;2023-03-14T04:54:52;14.98;;;6.85;;
51724;SDS011;37801;53.224;6.552;2023-03-14T04:57:18;16.00;;;7.32;;
51724;SDS011;37801;53.224;6.552;2023-03-14T04:59:44;17.55;;;8.35;;
51724;SDS011;37801;53.224;6.552;2023-03-14T05:02:10;18.80;;;8.10;;
51724;SDS011;37801;53.224;6.552;2023-03-14T05:04:35;18.58;;;7.82;;
51724;SDS011;37801;53.224;6.552;2023-03-14T05:07:01;14.15;;;7.65;;
51724;SDS011;37801;53.224;6.552;2023-03-14T05:09:27;17.63;;;8.13;;
51724;SDS011;37801;53.224;6.552;2023-03-14T05:11:53;18.38;;;8.02;;
51724;SDS011;37801;53.224;6.552;2023-03-14T05:14:19;19.88;;;8.52;;
51724;SDS011;37801;53.224;6.552;2023-03-14T05:16:44;19.25;;;8.50;;
51724;SDS011;37801;53.224;6.552;2023-03-14T05:19:10;16.92;;;8.07;;
51724;SDS011;37801;53.224;6.552;2023-03-14T05:21:36;15.63;;;8.10;;
51724;SDS011;37801;53.224;6.552;2023-03-14T05:24:02;15.10;;;7.95;;
51724;SDS011;37801;53.224;6.552;2023-03-14T05:26:28;19.92;;;8.18;;
51724;SDS011;37801;53.224;6.552;2023-03-14T05:28:54;13.77;;;7.53;;
51724;SDS011;37801;53.224;6.552;2023-03-14T05:31:20;14.73;;;7.25;;
51724;SDS011;37801;53.224;6.552;2023-03-14T05:33:46;13.15;;;5.93;;
51724;SDS011;37801;53.224;6.552;2023-03-14T05:36:12;12.18;;;6.22;;
51724;SDS011;37801;53.224;6.552;2023-03-14T05:38:37;14.18;;;6.22;;
51724;SDS011;37801;53.224;6.552;2023-03-14T05:41:03;16.40;;;6.72;;
51724;SDS011;37801;53.224;6.552;2023-03-14T05:43:29;11.20;;;6.00;;
51724;SDS011;37801;53.224;6.552;2023-03-14T05:45:55;15.40;;;7.30;;
51724;SDS011;37801;53.224;6.552;2023-03-14T05:48:21;13.65;;;6.63;;
51724;SDS011;37801;53.224;6.552;2023-03-14T05:50:47;20.35;;;7.25;;
51724;SDS011;37801;53.224;6.552;2023-03-14T05:53:13;11.70;;;6.43;;
51724;SDS011;37801;53.224;6.552;2023-03-14T05:55:39;8.40;;;5.68;;
51724;SDS011;37801;53.224;6.552;2023-03-14T05:58:05;11.27;;;5.47;;
51724;SDS011;37801;53.224;6.552;2023-03-14T06:00:31;12.63;;;5.75;;
51724;SDS011;37801;53.224;6.552;2023-03-14T06:02:56;10.60;;;5.82;;
51724;SDS011;37801;53.224;6.552;2023-03-14T06:05:22;9.65;;;5.60;;
51724;SDS011;37801;53.224;6.552;2023-03-14T06:07:48;9.05;;;4.82;;
51724;SDS011;37801;53.224;6.552;2023-03-14T06:10:14;8.98;;;4.95;;
51724;SDS011;37801;53.224;6.552;2023-03-14T06:12:40;9.68;;;4.90;;
51724;SDS011;37801;53.224;6.552;2023-03-14T06:15:05;9.30;;;4.68;;
51724;SDS011;37801;53.224;6.552;2023-03-14T06:17:32;8.68;;;3.97;;
51724;SDS011;37801;53.224;6.552;2023-03-14T06:19:57;7.13;;;4.05;;
51724;SDS011;37801;53.224;6.552;2023-03-14T06:22:23;8.75;;;3.78;;
51724;SDS011;37801;53.224;6.552;2023-03-14T06:24:49;5.53;;;3.15;;
51724;SDS011;37801;53.224;6.552;2023-03-14T06:27:15;8.40;;;3.63;;
51724;SDS011;37801;53.224;6.552;2023-03-14T06:29:40;6.75;;;2.75;;
51724;SDS011;37801;53.224;6.552;2023-03-14T06:32:06;6.03;;;1.92;;
51724;SDS011;37801;53.224;6.552;2023-03-14T06:34:32;11.52;;;6.10;;
51724;SDS011;37801;53.224;6.552;2023-03-14T06:36:58;10.13;;;3.10;;
51724;SDS011;37801;53.224;6.552;2023-03-14T06:39:23;18.08;;;3.55;;
51724;SDS011;37801;53.224;6.552;2023-03-14T06:41:49;18.30;;;2.25;;
51724;SDS011;37801;53.224;6.552;2023-03-14T06:44:15;16.35;;;2.03;;
51724;SDS011;37801;53.224;6.552;2023-03-14T06:46:40;14.98;;;2.95;;
51724;SDS011;37801;53.224;6.552;2023-03-14T06:49:06;20.48;;;2.83;;
51724;SDS011;37801;53.224;6.552;2023-03-14T06:51:32;14.57;;;2.28;;
51724;SDS011;37801;53.224;6.552;2023-03-14T06:53:58;15.07;;;2.42;;
51724;SDS011;37801;53.224;6.552;2023-03-14T06:56:24;21.02;;;2.75;;
51724;SDS011;37801;53.224;6.552;2023-03-14T06:58:50;13.60;;;2.38;;
51724;SDS011;37801;53.224;6.552;2023-03-14T07:01:17;20.30;;;2.67;;
51724;SDS011;37801;53.224;6.552;2023-03-14T07:03:49;11.65;;;1.55;;
51724;SDS011;37801;53.224;6.552;2023-03-14T07:06:15;13.63;;;1.92;;
51724;SDS011;37801;53.224;6.552;2023-03-14T07:08:41;14.43;;;1.95;;
51724;SDS011;37801;53.224;6.552;2023-03-14T07:11:07;14.95;;;1.98;;
51724;SDS011;37801;53.224;6.552;2023-03-14T07:13:35;13.05;;;1.65;;
51724;SDS011;37801;53.224;6.552;2023-03-14T07:16:00;15.15;;;1.83;;
51724;SDS011;37801;53.224;6.552;2023-03-14T07:18:26;8.40;;;1.05;;
51724;SDS011;37801;53.224;6.552;2023-03-14T07:20:52;7.97;;;1.48;;
51724;SDS011;37801;53.224;6.552;2023-03-14T07:23:17;8.60;;;1.00;;
51724;SDS011;37801;53.224;6.552;2023-03-14T07:25:43;10.07;;;1.10;;
51724;SDS011;37801;53.224;6.552;2023-03-14T07:28:09;6.68;;;1.35;;
51724;SDS011;37801;53.224;6.552;2023-03-14T07:30:35;9.70;;;3.08;;
51724;SDS011;37801;53.224;6.552;2023-03-14T07:33:00;8.27;;;1.70;;
51724;SDS011;37801;53.224;6.552;2023-03-14T07:35:26;3.92;;;0.77;;
51724;SDS011;37801;53.224;6.552;2023-03-14T07:37:52;8.45;;;0.77;;
51724;SDS011;37801;53.224;6.552;2023-03-14T07:40:17;5.35;;;0.70;;
51724;SDS011;37801;53.224;6.552;2023-03-14T07:42:43;4.00;;;0.50;;
51724;SDS011;37801;53.224;6.552;2023-03-14T07:45:09;3.20;;;0.50;;
51724;SDS011;37801;53.224;6.552;2023-03-14T07:47:36;4.65;;;0.70;;
51724;SDS011;37801;53.224;6.552;2023-03-14T07:50:02;4.07;;;0.63;;
51724;SDS011;37801;53.224;6.552;2023-03-14T07:52:29;3.05;;;0.63;;
51724;SDS011;37801;53.224;6.552;2023-03-14T07:54:55;2.03;;;0.73;;
51724;SDS011;37801;53.224;6.552;2023-03-14T07:57:21;3.45;;;0.55;;
51724;SDS011;37801;53.224;6.552;2023-03-14T07:59:47;8.82;;;0.93;;
51724;SDS011;37801;53.224;6.552;2023-03-14T08:02:13;7.32;;;1.10;;
51724;SDS011;37801;53.224;6.552;2023-03-14T08:04:39;5.90;;;0.50;;
51724;SDS011;37801;53.224;6.552;2023-03-14T08:07:05;2.83;;;0.68;;
51724;SDS011;37801;53.224;6.552;2023-03-14T08:09:31;6.60;;;0.63;;
51724;SDS011;37801;53.224;6.552;2023-03-14T08:11:57;7.47;;;0.93;;
51724;SDS011;37801;53.224;6.552;2023-03-14T08:14:22;8.20;;;1.27;;
51724;SDS011;37801;53.224;6.552;2023-03-14T08:16:52;7.40;;;0.93;;
51724;SDS011;37801;53.224;6.552;2023-03-14T08:19:17;3.40;;;0.70;;
51724;SDS011;37801;53.224;6.552;2023-03-14T08:21:43;9.02;;;1.08;;
51724;SDS011;37801;53.224;6.552;2023-03-14T08:24:09;6.28;;;0.70;;
51724;SDS011;37801;53.224;6.552;2023-03-14T08:26:35;12.10;;;0.98;;
51724;SDS011;37801;53.224;6.552;2023-03-14T08:29:00;5.95;;;1.13;;
51724;SDS011;37801;53.224;6.552;2023-03-14T08:31:26;9.60;;;1.20;;
51724;SDS011;37801;53.224;6.552;2023-03-14T08:33:52;7.13;;;0.88;;
51724;SDS011;37801;53.224;6.552;2023-03-14T08:36:18;10.20;;;1.20;;
51724;SDS011;37801;53.224;6.552;2023-03-14T08:38:45;11.25;;;1.38;;
51724;SDS011;37801;53.224;6.552;2023-03-14T08:41:11;17.02;;;1.63;;
51724;SDS011;37801;53.224;6.552;2023-03-14T08:43:37;13.02;;;2.28;;
51724;SDS011;37801;53.224;6.552;2023-03-14T08:46:02;15.43;;;1.73;;
51724;SDS011;37801;53.224;6.552;2023-03-14T08:48:29;12.80;;;2.60;;
51724;SDS011;37801;53.224;6.552;2023-03-14T08:51:05;15.23;;;2.53;;
51724;SDS011;37801;53.224;6.552;2023-03-14T08:53:32;13.07;;;2.35;;
51724;SDS011;37801;53.224;6.552;2023-03-14T08:55:58;16.40;;;2.10;;
51724;SDS011;37801;53.224;6.552;2023-03-14T08:58:24;18.63;;;2.47;;
51724;SDS011;37801;53.224;6.552;2023-03-14T09:00:50;12.38;;;2.42;;
51724;SDS011;37801;53.224;6.552;2023-03-14T09:03:15;19.70;;;3.00;;
51724;SDS011;37801;53.224;6.552;2023-03-14T09:05:41;28.73;;;4.28;;
51724;SDS011;37801;53.224;6.552;2023-03-14T09:08:07;23.60;;;3.70;;
51724;SDS011;37801;53.224;6.552;2023-03-14T09:10:33;19.80;;;3.03;;
51724;SDS011;37801;53.224;6.552;2023-03-14T09:12:58;20.95;;;2.92;;
51724;SDS011;37801;53.224;6.552;2023-03-14T09:15:25;22.00;;;2.67;;
51724;SDS011;37801;53.224;6.552;2023-03-14T09:17:51;22.02;;;3.45;;
51724;SDS011;37801;53.224;6.552;2023-03-14T09:20:16;28.77;;;4.43;;
51724;SDS011;37801;53.224;6.552;2023-03-14T09:22:42;32.70;;;4.78;;
51724;SDS011;37801;53.224;6.552;2023-03-14T09:25:08;30.52;;;4.25;;
51724;SDS011;37801;53.224;6.552;2023-03-14T09:27:35;36.13;;;4.50;;
51724;SDS011;37801;53.224;6.552;2023-03-14T09:30:01;20.55;;;3.67;;
51724;SDS011;37801;53.224;6.552;2023-03-14T09:32:27;23.40;;;3.25;;
51724;SDS011;37801;53.224;6.552;2023-03-14T09:34:53;30.73;;;4.10;;
51724;SDS011;37801;53.224;6.552;2023-03-14T09:37:19;26.33;;;3.90;;
51724;SDS011;37801;53.224;6.552;2023-03-14T09:39:45;19.15;;;3.08;;
51724;SDS011;37801;53.224;6.552;2023-03-14T09:42:13;28.38;;;3.42;;
51724;SDS011;37801;53.224;6.552;2023-03-14T09:44:46;24.70;;;4.15;;
51724;SDS011;37801;53.224;6.552;2023-03-14T09:47:16;18.35;;;3.15;;
51724;SDS011;37801;53.224;6.552;2023-03-14T09:49:45;37.53;;;4.28;;
51724;SDS011;37801;53.224;6.552;2023-03-14T09:54:47;27.35;;;4.63;;
51724;SDS011;37801;53.224;6.552;2023-03-14T09:57:19;23.73;;;3.40;;
51724;SDS011;37801;53.224;6.552;2023-03-14T09:59:48;31.60;;;4.28;;
51724;SDS011;37801;53.224;6.552;2023-03-14T10:04:49;28.53;;;4.67;;
51724;SDS011;37801;53.224;6.552;2023-03-14T10:07:21;24.70;;;4.10;;
51724;SDS011;37801;53.224;6.552;2023-03-14T10:09:55;30.48;;;4.57;;
51724;SDS011;37801;53.224;6.552;2023-03-14T10:12:34;25.33;;;3.85;;
51724;SDS011;37801;53.224;6.552;2023-03-14T10:15:03;29.58;;;4.00;;
51724;SDS011;37801;53.224;6.552;2023-03-14T10:17:37;23.40;;;3.88;;
51724;SDS011;37801;53.224;6.552;2023-03-14T10:20:30;28.77;;;4.07;;
51724;SDS011;37801;53.224;6.552;2023-03-14T10:23:41;27.42;;;3.47;;
51724;SDS011;37801;53.224;6.552;2023-03-14T10:25:59;29.63;;;4.28;;
51724;SDS011;37801;53.224;6.552;2023-03-14T10:28:32;21.67;;;3.42;;
51724;SDS011;37801;53.224;6.552;2023-03-14T10:31:04;30.10;;;3.83;;
51724;SDS011;37801;53.224;6.552;2023-03-14T10:33:34;27.83;;;3.10;;
51724;SDS011;37801;53.224;6.552;2023-03-14T10:36:03;22.50;;;3.65;;
51724;SDS011;37801;53.224;6.552;2023-03-14T10:38:33;17.63;;;2.65;;
51724;SDS011;37801;53.224;6.552;2023-03-14T10:41:01;21.60;;;3.22;;
51724;SDS011;37801;53.224;6.552;2023-03-14T10:43:37;19.63;;;3.40;;
51724;SDS011;37801;53.224;6.552;2023-03-14T10:46:16;16.20;;;2.60;;
51724;SDS011;37801;53.224;6.552;2023-03-14T10:48:44;20.98;;;2.92;;
51724;SDS011;37801;53.224;6.552;2023-03-14T10:51:11;14.45;;;2.80;;
51724;SDS011;37801;53.224;6.552;2023-03-14T10:56:39;26.17;;;2.80;;
51724;SDS011;37801;53.224;6.552;2023-03-14T10:59:12;14.52;;;2.78;;
51724;SDS011;37801;53.224;6.552;2023-03-14T11:01:59;14.85;;;3.53;;
51724;SDS011;37801;53.224;6.552;2023-03-14T11:15:08;12.90;;;2.92;;
51724;SDS011;37801;53.224;6.552;2023-03-14T11:27:14;9.05;;;2.03;;
51724;SDS011;37801;53.224;6.552;2023-03-14T11:32:21;11.13;;;1.55;;
51724;SDS011;37801;53.224;6.552;2023-03-14T11:34:55;14.38;;;1.80;;
51724;SDS011;37801;53.224;6.552;2023-03-14T11:39:59;8.50;;;1.80;;
51724;SDS011;37801;53.224;6.552;2023-03-14T11:42:39;15.35;;;2.45;;
51724;SDS011;37801;53.224;6.552;2023-03-14T11:45:29;16.40;;;3.92;;
51724;SDS011;37801;53.224;6.552;2023-03-14T11:48:24;7.93;;;1.63;;
51724;SDS011;37801;53.224;6.552;2023-03-14T11:50:52;17.30;;;2.28;;
51724;SDS011;37801;53.224;6.552;2023-03-14T11:56:18;12.45;;;1.67;;
51724;SDS011;37801;53.224;6.552;2023-03-14T11:59:03;12.75;;;1.92;;
51724;SDS011;37801;53.224;6.552;2023-03-14T12:01:36;8.38;;;1.95;;
51724;SDS011;37801;53.224;6.552;2023-03-14T12:07:03;14.98;;;2.25;;
51724;SDS011;37801;53.224;6.552;2023-03-14T12:09:40;9.70;;;1.63;;
51724;SDS011;37801;53.224;6.552;2023-03-14T12:12:06;20.58;;;2.35;;
51724;SDS011;37801;53.224;6.552;2023-03-14T12:14:43;11.55;;;2.03;;
51724;SDS011;37801;53.224;6.552;2023-03-14T12:20:01;14.15;;;2.38;;
51724;SDS011;37801;53.224;6.552;2023-03-14T12:22:46;13.48;;;2.20;;
51724;SDS011;37801;53.224;6.552;2023-03-14T12:25:24;15.15;;;2.25;;
51724;SDS011;37801;53.224;6.552;2023-03-14T12:38:05;16.85;;;2.45;;
51724;SDS011;37801;53.224;6.552;2023-03-14T12:40:39;10.90;;;2.35;;
51724;SDS011;37801;53.224;6.552;2023-03-14T12:43:34;14.88;;;2.67;;
51724;SDS011;37801;53.224;6.552;2023-03-14T12:51:30;13.35;;;2.53;;
51724;SDS011;37801;53.224;6.552;2023-03-14T13:02:02;9.73;;;1.88;;
51724;SDS011;37801;53.224;6.552;2023-03-14T13:04:47;10.68;;;2.00;;
51724;SDS011;37801;53.224;6.552;2023-03-14T13:07:35;10.88;;;2.13;;
51724;SDS011;37801;53.224;6.552;2023-03-14T13:15:49;11.73;;;1.95;;
51724;SDS011;37801;53.224;6.552;2023-03-14T13:23:53;11.75;;;2.25;;
51724;SDS011;37801;53.224;6.552;2023-03-14T13:26:40;11.00;;;1.52;;
51724;SDS011;37801;53.224;6.552;2023-03-14T13:29:08;13.07;;;2.53;;
51724;SDS011;37801;53.224;6.552;2023-03-14T13:31:43;10.30;;;1.80;;
51724;SDS011;37801;53.224;6.552;2023-03-14T13:34:11;10.98;;;1.73;;
51724;SDS011;37801;53.224;6.552;2023-03-14T13:36:37;10.90;;;1.60;;
51724;SDS011;37801;53.224;6.552;2023-03-14T13:39:04;7.40;;;1.52;;
51724;SDS011;37801;53.224;6.552;2023-03-14T13:41:38;10.23;;;1.98;;
51724;SDS011;37801;53.224;6.552;2023-03-14T13:44:06;17.10;;;2.15;;
51724;SDS011;37801;53.224;6.552;2023-03-14T13:46:39;13.15;;;2.10;;
51724;SDS011;37801;53.224;6.552;2023-03-14T13:49:05;11.35;;;1.88;;
51724;SDS011;37801;53.224;6.552;2023-03-14T13:51:36;17.60;;;2.00;;
51724;SDS011;37801;53.224;6.552;2023-03-14T13:54:11;12.70;;;1.88;;
51724;SDS011;37801;53.224;6.552;2023-03-14T13:56:42;14.30;;;1.90;;
51724;SDS011;37801;53.224;6.552;2023-03-14T13:59:22;7.07;;;1.65;;
51724;SDS011;37801;53.224;6.552;2023-03-14T14:01:58;10.05;;;2.08;;
51724;SDS011;37801;53.224;6.552;2023-03-14T14:04:26;6.35;;;1.63;;
51724;SDS011;37801;53.224;6.552;2023-03-14T14:06:56;16.20;;;2.70;;
51724;SDS011;37801;53.224;6.552;2023-03-14T14:09:24;9.35;;;1.88;;
51724;SDS011;37801;53.224;6.552;2023-03-14T14:11:54;9.98;;;1.98;;
51724;SDS011;37801;53.224;6.552;2023-03-14T14:14:31;13.57;;;1.90;;
51724;SDS011;37801;53.224;6.552;2023-03-14T14:17:08;8.07;;;1.60;;
51724;SDS011;37801;53.224;6.552;2023-03-14T14:19:36;10.98;;;1.75;;
51724;SDS011;37801;53.224;6.552;2023-03-14T14:22:03;8.70;;;1.40;;
51724;SDS011;37801;53.224;6.552;2023-03-14T14:24:30;10.23;;;1.65;;
51724;SDS011;37801;53.224;6.552;2023-03-14T14:27:02;10.80;;;1.90;;
51724;SDS011;37801;53.224;6.552;2023-03-14T14:29:40;8.63;;;1.50;;
51724;SDS011;37801;53.224;6.552;2023-03-14T14:35:06;10.70;;;1.38;;
51724;SDS011;37801;53.224;6.552;2023-03-14T14:37:27;13.40;;;1.77;;
51724;SDS011;37801;53.224;6.552;2023-03-14T14:39:57;9.02;;;1.52;;
51724;SDS011;37801;53.224;6.552;2023-03-14T14:42:26;11.63;;;1.80;;
51724;SDS011;37801;53.224;6.552;2023-03-14T14:44:55;8.90;;;2.05;;
51724;SDS011;37801;53.224;6.552;2023-03-14T14:47:23;10.93;;;1.45;;
51724;SDS011;37801;53.224;6.552;2023-03-14T14:49:51;9.18;;;1.30;;
51724;SDS011;37801;53.224;6.552;2023-03-14T14:52:30;10.27;;;2.05;;
51724;SDS011;37801;53.224;6.552;2023-03-14T14:55:11;14.13;;;2.03;;
51724;SDS011;37801;53.224;6.552;2023-03-14T14:57:53;18.95;;;2.45;;
51724;SDS011;37801;53.224;6.552;2023-03-14T15:00:22;10.80;;;1.90;;
51724;SDS011;37801;53.224;6.552;2023-03-14T15:02:53;11.27;;;2.00;;
51724;SDS011;37801;53.224;6.552;2023-03-14T15:05:24;14.80;;;2.20;;
51724;SDS011;37801;53.224;6.552;2023-03-14T15:07:51;11.50;;;2.22;;
51724;SDS011;37801;53.224;6.552;2023-03-14T15:10:18;10.73;;;1.63;;
51724;SDS011;37801;53.224;6.552;2023-03-14T15:12:45;10.45;;;1.40;;
51724;SDS011;37801;53.224;6.552;2023-03-14T15:15:12;12.52;;;1.75;;
51724;SDS011;37801;53.224;6.552;2023-03-14T15:17:38;9.05;;;1.23;;
51724;SDS011;37801;53.224;6.552;2023-03-14T15:20:05;6.55;;;1.40;;
51724;SDS011;37801;53.224;6.552;2023-03-14T15:22:35;9.20;;;1.52;;
51724;SDS011;37801;53.224;6.552;2023-03-14T15:25:00;12.20;;;2.08;;
51724;SDS011;37801;53.224;6.552;2023-03-14T15:27:26;10.50;;;1.80;;
51724;SDS011;37801;53.224;6.552;2023-03-14T15:29:55;7.15;;;1.50;;
51724;SDS011;37801;53.224;6.552;2023-03-14T15:32:20;8.38;;;1.65;;
51724;SDS011;37801;53.224;6.552;2023-03-14T15:34:46;10.00;;;1.83;;
51724;SDS011;37801;53.224;6.552;2023-03-14T15:37:13;11.25;;;1.92;;
51724;SDS011;37801;53.224;6.552;2023-03-14T15:39:41;12.68;;;1.95;;
51724;SDS011;37801;53.224;6.552;2023-03-14T15:42:08;11.32;;;2.08;;
51724;SDS011;37801;53.224;6.552;2023-03-14T15:44:34;18.23;;;2.28;;
51724;SDS011;37801;53.224;6.552;2023-03-14T15:47:00;10.30;;;2.05;;
51724;SDS011;37801;53.224;6.552;2023-03-14T15:49:26;10.75;;;1.73;;
51724;SDS011;37801;53.224;6.552;2023-03-14T15:51:52;10.15;;;1.75;;
51724;SDS011;37801;53.224;6.552;2023-03-14T15:54:18;10.63;;;2.15;;
51724;SDS011;37801;53.224;6.552;2023-03-14T15:56:44;10.13;;;1.40;;
51724;SDS011;37801;53.224;6.552;2023-03-14T15:59:10;11.68;;;1.65;;
51724;SDS011;37801;53.224;6.552;2023-03-14T16:01:35;10.70;;;1.88;;
51724;SDS011;37801;53.224;6.552;2023-03-14T16:04:01;9.63;;;1.92;;
51724;SDS011;37801;53.224;6.552;2023-03-14T16:06:27;8.73;;;1.58;;
51724;SDS011;37801;53.224;6.552;2023-03-14T16:08:53;8.50;;;1.70;;
51724;SDS011;37801;53.224;6.552;2023-03-14T16:11:19;10.15;;;1.65;;